createdAt,value
2019-04-26T00:01:20.470Z,21.18
2019-04-26T00:03:50.507Z,21.18
2019-04-26T00:06:20.978Z,20.97
2019-04-26T00:08:56.252Z,20.99
2019-04-26T00:11:52.558Z,21.39
2019-04-26T00:14:41.564Z,21.31
2019-04-26T00:17:15.728Z,21.06
2019-04-26T00:19:45.889Z,21.07
2019-04-26T00:22:17.168Z,21.05
2019-04-26T00:24:47.333Z,21.22
2019-04-26T00:27:17.232Z,21.02
2019-04-26T00:29:47.125Z,21.28
2019-04-26T00:32:17.369Z,21.63
2019-04-26T00:34:47.564Z,21.42
2019-04-26T00:37:17.976Z,20.75
2019-04-26T00:39:47.911Z,20.78
2019-04-26T00:42:18.589Z,20.78
2019-04-26T00:44:48.662Z,20.74
2019-04-26T00:47:21.093Z,21.17
2019-04-26T00:49:52.259Z,20.87
2019-04-26T00:52:23.830Z,20.86
2019-04-26T00:54:54.253Z,21.18
2019-04-26T00:57:25.250Z,20.70
2019-04-26T00:59:55.433Z,20.60
2019-04-26T01:02:31.316Z,21.00
2019-04-26T01:05:01.248Z,20.65
2019-04-26T01:07:31.121Z,20.79
2019-04-26T01:10:00.992Z,20.82
2019-04-26T01:12:30.875Z,21.14
2019-04-26T01:15:00.772Z,20.74
2019-04-26T01:17:30.645Z,20.68
2019-04-26T01:20:03.171Z,20.81
2019-04-26T01:22:38.349Z,20.47
2019-04-26T01:25:09.997Z,20.66
2019-04-26T01:27:40.155Z,20.33
2019-04-26T01:30:14.132Z,20.57
2019-04-26T01:32:46.246Z,20.96
2019-04-26T01:35:16.704Z,20.78
2019-04-26T01:37:47.703Z,20.35
2019-04-26T01:40:21.078Z,20.69
2019-04-26T01:42:59.083Z,20.46
2019-04-26T01:45:47.010Z,20.90
2019-04-26T01:48:45.542Z,20.34
2019-04-26T01:51:27.029Z,20.80
2019-04-26T01:53:57.216Z,20.59
2019-04-26T01:56:33.799Z,20.79
2019-04-26T01:59:05.184Z,20.41
2019-04-26T02:01:50.811Z,20.51
2019-04-26T02:04:22.600Z,20.67
2019-04-26T02:06:53.183Z,20.54
2019-04-26T02:09:24.340Z,20.74
2019-04-26T02:11:54.229Z,20.72
2019-04-26T02:14:25.285Z,20.28
2019-04-26T02:16:55.619Z,20.25
2019-04-26T02:19:25.791Z,20.24
2019-04-26T02:22:02.188Z,19.86
2019-04-26T02:24:35.848Z,20.22
2019-04-26T02:27:11.090Z,20.11
2019-04-26T02:29:40.985Z,19.84
2019-04-26T02:32:10.892Z,19.74
2019-04-26T02:34:40.960Z,20.05
2019-04-26T02:37:13.545Z,20.04
2019-04-26T02:39:43.911Z,20.15
2019-04-26T02:42:32.903Z,20.30
2019-04-26T02:45:36.781Z,20.65
2019-04-26T02:48:20.536Z,20.16
2019-04-26T02:50:57.867Z,19.89
2019-04-26T02:53:44.209Z,20.19
2019-04-26T02:56:37.701Z,20.47
2019-04-26T02:59:37.715Z,20.09
2019-04-26T03:02:21.130Z,20.16
2019-04-26T03:04:56.760Z,20.41
2019-04-26T03:08:02.950Z,20.30
2019-04-26T03:10:43.634Z,20.32
2019-04-26T03:13:40.256Z,19.88
2019-04-26T03:16:31.429Z,20.07
2019-04-26T03:19:17.286Z,20.14
2019-04-26T03:22:05.105Z,20.20
2019-04-26T03:24:45.518Z,19.43
2019-04-26T03:27:39.736Z,20.39
2019-04-26T03:30:24.116Z,20.40
2019-04-26T03:33:39.834Z,20.21
2019-04-26T03:37:19.571Z,20.29
2019-04-26T03:40:00.637Z,20.48
2019-04-26T03:42:56.395Z,19.99
2019-04-26T03:46:02.038Z,19.73
2019-04-26T03:48:48.037Z,19.75
2019-04-26T03:51:37.517Z,19.79
2019-04-26T03:54:16.982Z,20.01
2019-04-26T03:57:13.187Z,19.85
2019-04-26T04:00:21.664Z,19.87
2019-04-26T04:03:30.577Z,19.47
2019-04-26T04:06:05.230Z,19.85
2019-04-26T04:08:48.245Z,20.00
2019-04-26T04:11:24.671Z,20.23
2019-04-26T04:14:05.753Z,20.15
2019-04-26T04:17:15.505Z,20.01
2019-04-26T04:20:22.564Z,20.28
2019-04-26T04:23:09.019Z,19.83
2019-04-26T04:25:46.993Z,19.76
2019-04-26T04:28:38.610Z,19.79
2019-04-26T04:31:31.798Z,20.07
2019-04-26T04:34:13.598Z,20.46
2019-04-26T04:36:53.349Z,20.35
2019-04-26T04:39:54.273Z,19.87
2019-04-26T04:43:06.206Z,20.05
2019-04-26T04:46:15.908Z,20.42
2019-04-26T04:49:16.481Z,19.89
2019-04-26T04:52:14.164Z,20.45
2019-04-26T04:55:06.364Z,20.60
2019-04-26T04:58:05.223Z,20.71
2019-04-26T05:01:33.095Z,20.81
2019-04-26T05:04:19.398Z,20.69
2019-04-26T05:07:23.692Z,20.90
2019-04-26T05:10:18.736Z,20.87
2019-04-26T05:13:21.298Z,20.33
2019-04-26T05:16:42.515Z,21.11
2019-04-26T05:19:58.732Z,20.62
2019-04-26T05:23:16.502Z,20.99
2019-04-26T05:26:55.713Z,20.49
2019-04-26T05:30:22.835Z,20.42
2019-04-26T05:33:56.762Z,20.68
2019-04-26T05:37:05.024Z,20.48
2019-04-26T05:40:02.633Z,21.03
2019-04-26T05:43:22.629Z,20.40
2019-04-26T05:47:18.179Z,20.88
2019-04-26T05:51:32.517Z,20.74
2019-04-26T05:55:00.581Z,20.34
2019-04-26T05:58:13.731Z,21.59
2019-04-26T06:01:41.682Z,21.74
2019-04-26T06:04:46.505Z,21.74
2019-04-26T06:07:37.003Z,21.68
2019-04-26T06:10:39.160Z,22.50
2019-04-26T06:13:36.049Z,21.32
2019-04-26T06:17:21.267Z,21.73
2019-04-26T06:20:22.606Z,21.88
2019-04-26T06:23:37.326Z,21.31
2019-04-26T06:27:13.710Z,21.46
2019-04-26T06:29:48.021Z,21.08
2019-04-26T06:32:34.037Z,22.11
2019-04-26T06:35:16.391Z,21.76
2019-04-26T06:41:06.369Z,21.61
2019-04-26T06:43:45.773Z,22.05
2019-04-26T06:47:16.392Z,22.42
2019-04-26T06:50:28.955Z,21.47
2019-04-26T06:53:30.161Z,21.83
2019-04-26T06:56:32.528Z,22.44
2019-04-26T06:59:47.176Z,22.02
2019-04-26T07:02:31.832Z,21.93
2019-04-26T07:05:16.237Z,21.67
2019-04-26T07:08:28.206Z,21.85
2019-04-26T07:11:42.586Z,22.20
2019-04-26T07:14:57.748Z,22.60
2019-04-26T07:17:51.481Z,21.70
2019-04-26T07:20:46.321Z,21.90
2019-04-26T07:24:13.328Z,22.41
2019-04-26T07:27:18.258Z,22.19
2019-04-26T07:30:25.090Z,23.18
2019-04-26T07:33:26.504Z,23.62
2019-04-26T07:36:53.439Z,23.52
2019-04-26T07:40:34.803Z,23.83
2019-04-26T07:44:14.500Z,23.66
2019-04-26T07:47:26.331Z,23.96
2019-04-26T07:50:54.917Z,24.47
2019-04-26T07:54:13.171Z,24.34
2019-04-26T07:57:54.792Z,24.08
2019-04-26T08:00:44.987Z,24.48
2019-04-26T08:03:43.631Z,23.67
2019-04-26T08:06:25.134Z,22.76
2019-04-26T08:09:25.098Z,22.90
2019-04-26T08:11:53.368Z,24.47
2019-04-26T08:14:41.462Z,24.72
2019-04-26T08:17:43.158Z,23.58
2019-04-26T08:20:50.226Z,22.89
2019-04-26T08:23:39.502Z,23.21
2019-04-26T08:26:09.134Z,22.61
2019-04-26T08:28:44.499Z,23.85
2019-04-26T08:31:23.195Z,25.13
2019-04-26T08:33:59.673Z,25.05
2019-04-26T08:36:36.102Z,24.27
2019-04-26T08:39:24.581Z,24.36
2019-04-26T08:41:55.171Z,24.97
2019-04-26T08:44:46.104Z,24.67
2019-04-26T08:47:28.312Z,24.79
2019-04-26T08:50:09.645Z,24.83
2019-04-26T08:52:41.450Z,25.01
2019-04-26T08:55:12.973Z,25.20
2019-04-26T08:57:46.652Z,25.32
2019-04-26T09:00:32.275Z,25.32
2019-04-26T09:03:32.406Z,25.23
2019-04-26T09:06:15.421Z,25.40
2019-04-26T09:08:49.158Z,25.38
2019-04-26T09:11:26.431Z,25.58
2019-04-26T09:13:56.495Z,25.81
2019-04-26T09:16:26.589Z,25.79
2019-04-26T09:18:59.612Z,25.75
2019-04-26T09:21:35.461Z,26.11
2019-04-26T09:24:13.492Z,25.49
2019-04-26T09:26:48.825Z,25.76
2019-04-26T09:29:30.554Z,24.98
2019-04-26T09:32:03.569Z,25.43
2019-04-26T09:34:33.511Z,25.59
2019-04-26T09:37:03.565Z,24.84
2019-04-26T09:39:33.454Z,25.04
2019-04-26T09:42:11.156Z,25.71
2019-04-26T09:44:52.706Z,25.73
2019-04-26T09:47:36.481Z,25.26
2019-04-26T09:50:23.811Z,25.52
2019-04-26T09:52:54.023Z,25.66
2019-04-26T09:55:34.756Z,25.64
2019-04-26T09:57:57.085Z,25.63
2019-04-26T10:00:29.624Z,25.78
2019-04-26T10:02:59.667Z,26.02
2019-04-26T10:05:29.557Z,25.74
2019-04-26T10:07:59.488Z,26.03
2019-04-26T10:10:35.320Z,25.95
2019-04-26T10:13:29.067Z,25.67
2019-04-26T10:16:13.278Z,25.70
2019-04-26T10:18:46.090Z,25.95
2019-04-26T10:21:16.013Z,25.10
2019-04-26T10:23:46.152Z,24.87
2019-04-26T10:26:16.436Z,25.66
2019-04-26T10:28:50.411Z,25.94
2019-04-26T10:31:18.675Z,26.15
2019-04-26T10:33:48.727Z,26.12
2019-04-26T10:36:18.771Z,26.34
2019-04-26T10:38:48.749Z,25.56
2019-04-26T10:41:18.854Z,25.62
2019-04-26T10:43:48.743Z,25.72
2019-04-26T10:46:18.671Z,25.35
2019-04-26T10:48:49.794Z,25.40
2019-04-26T10:51:26.982Z,24.98
2019-04-26T10:54:06.005Z,25.21
2019-04-26T10:56:54.905Z,24.90
2019-04-26T10:59:31.938Z,24.34
2019-04-26T11:02:01.972Z,24.91
2019-04-26T11:04:31.973Z,25.06
2019-04-26T11:07:03.394Z,25.39
2019-04-26T11:09:33.469Z,24.68
2019-04-26T11:12:04.972Z,24.79
2019-04-26T11:14:34.892Z,24.54
2019-04-26T11:17:05.647Z,24.76
2019-04-26T11:19:36.609Z,25.23
2019-04-26T11:22:06.766Z,25.33
2019-04-26T11:24:36.667Z,25.59
2019-04-26T11:27:09.559Z,25.76
2019-04-26T11:29:38.479Z,25.65
2019-04-26T11:32:09.140Z,25.88
2019-04-26T11:34:39.148Z,25.34
2019-04-26T11:37:09.245Z,25.06
2019-04-26T11:39:40.446Z,24.92
2019-04-26T11:42:11.852Z,25.47
2019-04-26T11:44:44.518Z,25.06
2019-04-26T11:47:14.328Z,25.40
2019-04-26T11:49:44.301Z,25.11
2019-04-26T11:52:14.342Z,25.00
2019-04-26T11:54:44.369Z,24.48
2019-04-26T11:57:14.276Z,24.64
2019-04-26T11:59:44.367Z,24.64
2019-04-26T12:02:16.240Z,24.29
2019-04-26T12:05:08.124Z,24.81
2019-04-26T12:07:57.679Z,24.36
2019-04-26T12:10:27.685Z,24.27
2019-04-26T12:13:05.577Z,24.90
2019-04-26T12:15:30.351Z,24.91
2019-04-26T12:18:00.670Z,25.38
2019-04-26T12:20:30.903Z,25.96
2019-04-26T12:23:00.846Z,26.05
2019-04-26T12:25:31.186Z,26.15
2019-04-26T12:28:02.072Z,26.38
2019-04-26T12:30:33.093Z,25.89
2019-04-26T12:33:04.552Z,26.33
2019-04-26T12:35:34.570Z,26.05
2019-04-26T12:38:04.590Z,25.25
2019-04-26T12:40:34.535Z,26.48
2019-04-26T12:43:04.539Z,26.54
2019-04-26T12:45:52.584Z,25.90
2019-04-26T12:48:23.128Z,26.36
2019-04-26T12:50:53.029Z,25.37
2019-04-26T12:53:26.871Z,26.21
2019-04-26T12:55:58.156Z,26.53
2019-04-26T12:58:26.505Z,26.40
2019-04-26T13:00:58.398Z,25.34
2019-04-26T13:03:29.314Z,25.25
2019-04-26T13:05:59.929Z,25.39
2019-04-26T13:08:29.869Z,25.30
2019-04-26T13:11:15.443Z,25.89
2019-04-26T13:13:59.426Z,25.21
2019-04-26T13:16:47.239Z,24.49
2019-04-26T13:19:19.866Z,25.27
2019-04-26T13:21:48.784Z,25.77
2019-04-26T13:24:18.716Z,24.99
2019-04-26T13:26:50.183Z,25.63
2019-04-26T13:29:20.456Z,25.24
2019-04-26T13:31:50.308Z,25.53
2019-04-26T13:34:20.266Z,25.98
2019-04-26T13:36:50.262Z,24.81
2019-04-26T13:39:22.338Z,25.85
2019-04-26T13:42:02.157Z,25.54
2019-04-26T13:44:41.280Z,24.97
2019-04-26T13:47:33.146Z,25.28
2019-04-26T13:50:10.514Z,25.99
2019-04-26T13:52:40.423Z,25.67
2019-04-26T13:55:10.805Z,26.00
2019-04-26T13:57:44.521Z,25.25
2019-04-26T14:00:16.238Z,25.58
2019-04-26T14:02:46.333Z,26.30
2019-04-26T14:05:16.961Z,25.96
2019-04-26T14:07:47.133Z,25.41
2019-04-26T14:10:17.525Z,25.04
2019-04-26T14:12:50.042Z,24.95
2019-04-26T14:15:19.491Z,24.72
2019-04-26T14:17:49.374Z,24.79
2019-04-26T14:20:23.203Z,24.60
2019-04-26T14:23:00.432Z,25.35
2019-04-26T14:25:37.246Z,24.89
2019-04-26T14:28:07.227Z,25.63
2019-04-26T14:30:37.475Z,25.31
2019-04-26T14:33:08.873Z,25.13
2019-04-26T14:35:46.241Z,25.65
2019-04-26T14:38:27.104Z,24.93
2019-04-26T14:40:46.505Z,24.83
2019-04-26T14:43:18.264Z,25.07
2019-04-26T14:45:55.792Z,24.50
2019-04-26T14:48:29.333Z,25.04
2019-04-26T14:50:53.250Z,25.40
2019-04-26T14:53:23.468Z,25.85
2019-04-26T14:55:54.706Z,25.23
2019-04-26T14:58:29.860Z,24.42
2019-04-26T15:01:03.186Z,24.90
2019-04-26T15:03:40.142Z,24.87
2019-04-26T15:06:16.901Z,24.87
2019-04-26T15:08:48.905Z,24.42
2019-04-26T15:11:18.920Z,24.49
2019-04-26T15:13:49.018Z,25.39
2019-04-26T15:16:22.024Z,24.90
2019-04-26T15:18:50.578Z,25.41
2019-04-26T15:21:20.500Z,25.11
2019-04-26T15:23:50.425Z,25.11
2019-04-26T15:26:24.236Z,24.63
2019-04-26T15:28:52.015Z,24.43
2019-04-26T15:31:24.867Z,24.36
2019-04-26T15:33:54.551Z,24.41
2019-04-26T15:36:24.490Z,24.51
2019-04-26T15:38:55.300Z,24.10
2019-04-26T15:41:43.116Z,24.34
2019-04-26T15:44:45.962Z,24.33
2019-04-26T15:47:34.805Z,24.71
2019-04-26T15:50:10.880Z,24.94
2019-04-26T15:52:42.335Z,24.89
2019-04-26T15:55:13.407Z,24.34
2019-04-26T15:57:43.392Z,23.90
2019-04-26T16:00:13.379Z,24.04
2019-04-26T16:02:43.559Z,24.54
2019-04-26T16:05:16.542Z,24.40
2019-04-26T16:07:45.374Z,23.99
2019-04-26T16:10:15.522Z,23.75
2019-04-26T16:12:45.515Z,23.84
2019-04-26T16:15:15.409Z,23.61
2019-04-26T16:17:45.308Z,23.52
2019-04-26T16:20:15.413Z,23.63
2019-04-26T16:22:45.505Z,23.49
2019-04-26T16:25:15.573Z,23.72
2019-04-26T16:27:45.481Z,23.96
2019-04-26T16:30:28.198Z,23.79
2019-04-26T16:33:04.833Z,23.56
2019-04-26T16:35:35.278Z,23.70
2019-04-26T16:38:22.962Z,23.22
2019-04-26T16:40:55.008Z,23.05
2019-04-26T16:43:36.440Z,23.13
2019-04-26T16:45:56.450Z,22.95
2019-04-26T16:48:27.267Z,23.46
2019-04-26T16:51:00.892Z,23.59
2019-04-26T16:53:45.532Z,23.59
2019-04-26T16:56:03.257Z,23.16
2019-04-26T16:58:38.114Z,22.64
2019-04-26T17:01:09.964Z,22.97
2019-04-26T17:03:38.216Z,22.74
2019-04-26T17:06:13.286Z,22.89
2019-04-26T17:08:43.315Z,23.08
2019-04-26T17:11:12.415Z,22.88
2019-04-26T17:13:51.515Z,22.67
2019-04-26T17:16:14.828Z,23.12
2019-04-26T17:18:44.812Z,22.73
2019-04-26T17:21:17.729Z,22.44
2019-04-26T17:24:10.255Z,22.87
2019-04-26T17:26:47.744Z,22.53
2019-04-26T17:29:17.717Z,22.36
2019-04-26T17:31:47.608Z,22.29
2019-04-26T17:34:17.589Z,22.41
2019-04-26T17:36:50.537Z,21.92
2019-04-26T17:39:19.342Z,22.13
2019-04-26T17:41:50.618Z,22.09
2019-04-26T17:44:26.585Z,22.05
2019-04-26T17:46:56.316Z,21.96
2019-04-26T17:49:27.427Z,21.85
2019-04-26T17:51:58.181Z,22.07
2019-04-26T17:54:44.116Z,21.87
2019-04-26T17:56:59.128Z,21.80
2019-04-26T17:59:34.577Z,22.02
2019-04-26T18:02:01.411Z,21.70
2019-04-26T18:04:36.494Z,21.61
2019-04-26T18:07:22.159Z,21.44
2019-04-26T18:09:43.905Z,21.36
2019-04-26T18:12:06.914Z,21.22
2019-04-26T18:14:36.810Z,21.40
2019-04-26T18:17:15.084Z,21.17
2019-04-26T18:20:18.996Z,21.05
2019-04-26T18:22:55.898Z,20.82
2019-04-26T18:25:25.898Z,20.87
2019-04-26T18:27:55.793Z,20.91
2019-04-26T18:30:26.994Z,21.00
2019-04-26T18:32:57.087Z,20.87
2019-04-26T18:35:27.028Z,20.65
2019-04-26T18:37:56.927Z,20.61
2019-04-26T18:40:27.127Z,20.66
2019-04-26T18:42:57.007Z,20.75
2019-04-26T18:45:29.793Z,20.72
2019-04-26T18:48:01.488Z,20.58
2019-04-26T18:50:32.754Z,20.48
2019-04-26T18:53:30.639Z,20.49
2019-04-26T18:56:03.407Z,20.57
2019-04-26T18:58:34.813Z,20.37
2019-04-26T19:01:05.344Z,20.41
2019-04-26T19:03:35.289Z,20.47
2019-04-26T19:06:05.778Z,20.42
2019-04-26T19:08:45.395Z,20.38
2019-04-26T19:11:11.547Z,20.37
2019-04-26T19:14:02.160Z,20.12
2019-04-26T19:16:39.883Z,20.49
2019-04-26T19:19:25.921Z,20.09
2019-04-26T19:22:01.515Z,20.16
2019-04-26T19:24:32.159Z,20.04
2019-04-26T19:27:04.171Z,19.97
2019-04-26T19:29:36.072Z,19.93
2019-04-26T19:32:06.180Z,20.18
2019-04-26T19:34:36.124Z,20.02
2019-04-26T19:37:06.106Z,19.95
2019-04-26T19:39:36.156Z,20.30
2019-04-26T19:42:06.461Z,19.96
2019-04-26T19:44:36.435Z,19.90
2019-04-26T19:47:14.581Z,19.74
2019-04-26T19:50:03.067Z,19.93
2019-04-26T19:52:51.777Z,19.85
2019-04-26T19:55:41.799Z,19.92
2019-04-26T19:58:20.074Z,19.85
2019-04-26T20:00:46.877Z,19.63
2019-04-26T20:03:17.135Z,19.30
2019-04-26T20:05:54.969Z,19.77
2019-04-26T20:08:25.041Z,19.51
2019-04-26T20:10:55.014Z,19.56
2019-04-26T20:13:25.331Z,19.65
2019-04-26T20:15:57.329Z,20.23
2019-04-26T20:18:26.867Z,19.97
2019-04-26T20:20:56.854Z,19.97
2019-04-26T20:23:26.893Z,19.67
2019-04-26T20:26:00.935Z,19.53
2019-04-26T20:28:29.676Z,19.55
2019-04-26T20:31:23.805Z,18.98
2019-04-26T20:33:53.723Z,19.52
2019-04-26T20:36:23.675Z,19.52
2019-04-26T20:38:53.632Z,19.21
2019-04-26T20:41:23.585Z,20.00
2019-04-26T20:44:04.937Z,19.39
2019-04-26T20:46:29.621Z,19.02
2019-04-26T20:49:01.475Z,19.28
2019-04-26T20:51:32.372Z,18.46
2019-04-26T20:54:03.988Z,18.53
2019-04-26T20:56:35.366Z,18.94
2019-04-26T20:59:06.203Z,18.74
2019-04-26T21:01:36.724Z,19.70
2019-04-26T21:04:07.733Z,19.46
2019-04-26T21:06:38.780Z,18.56
2019-04-26T21:09:12.570Z,18.85
2019-04-26T21:11:43.579Z,19.41
2019-04-26T21:14:14.431Z,18.53
2019-04-26T21:16:49.357Z,19.10
2019-04-26T21:19:18.956Z,19.30
2019-04-26T21:21:52.215Z,19.30
2019-04-26T21:24:25.089Z,18.95
2019-04-26T21:27:08.967Z,19.04
2019-04-26T21:29:52.388Z,18.68
2019-04-26T21:32:30.334Z,18.68
2019-04-26T21:35:03.522Z,18.59
2019-04-26T21:37:38.671Z,18.78
2019-04-26T21:40:22.455Z,18.43
2019-04-26T21:42:49.360Z,18.45
2019-04-26T21:45:21.665Z,18.76
2019-04-26T21:47:51.808Z,18.57
2019-04-26T21:50:22.399Z,18.56
2019-04-26T21:52:54.639Z,18.59
2019-04-26T21:55:31.876Z,18.49
2019-04-26T21:57:58.634Z,18.43
2019-04-26T22:00:51.611Z,18.59
2019-04-26T22:03:21.546Z,18.51
2019-04-26T22:05:51.582Z,18.58
2019-04-26T22:08:25.814Z,17.76
2019-04-26T22:10:55.908Z,17.86
2019-04-26T22:13:33.275Z,17.57
2019-04-26T22:16:33.368Z,17.94
2019-04-26T22:19:04.605Z,17.72
2019-04-26T22:21:44.281Z,17.27
2019-04-26T22:24:19.518Z,17.44
2019-04-26T22:26:49.648Z,17.14
2019-04-26T22:29:19.833Z,17.28
2019-04-26T22:31:49.759Z,17.28
2019-04-26T22:34:19.705Z,17.44
2019-04-26T22:36:49.747Z,17.30
2019-04-26T22:39:19.784Z,17.63
2019-04-26T22:41:49.825Z,17.27
2019-04-26T22:44:34.639Z,17.66
2019-04-26T22:47:25.523Z,17.34
2019-04-26T22:49:55.738Z,17.76
2019-04-26T22:52:25.656Z,17.53
2019-04-26T22:54:55.518Z,17.82
2019-04-26T22:57:25.573Z,17.83
2019-04-26T22:59:55.456Z,17.31
2019-04-26T23:02:27.616Z,16.92
2019-04-26T23:05:00.659Z,16.48
2019-04-26T23:07:29.461Z,17.01
2019-04-26T23:09:59.396Z,16.33
2019-04-26T23:12:51.598Z,16.46
2019-04-26T23:15:55.586Z,16.71
2019-04-26T23:18:46.267Z,16.26
2019-04-26T23:21:25.037Z,16.13
2019-04-26T23:23:55.035Z,15.54
2019-04-26T23:26:25.113Z,16.11
2019-04-26T23:28:55.191Z,15.65
2019-04-26T23:31:25.160Z,15.71
2019-04-26T23:33:55.092Z,15.22
2019-04-26T23:36:25.066Z,15.18
2019-04-26T23:38:55.073Z,14.89
2019-04-26T23:41:25.075Z,15.39
2019-04-26T23:44:02.596Z,15.39
2019-04-26T23:46:26.635Z,15.02
2019-04-26T23:48:56.549Z,14.74
2019-04-26T23:51:26.435Z,14.46
2019-04-26T23:53:57.770Z,14.63
2019-04-26T23:56:27.897Z,14.95
2019-04-26T23:58:57.845Z,14.93
